sensor_id;sensor_type;location;lat;lon;timestamp;pressure;altitude;pressure_sealevel;temperature;humidity
63097;BME280;49185;42.320;23.198;2024-02-15T00:00:21;95243.97;;;2.53;100.00
63097;BME280;49185;42.320;23.198;2024-02-15T00:02:47;95240.25;;;2.47;100.00
63097;BME280;49185;42.320;23.198;2024-02-15T00:05:12;95236.22;;;2.44;100.00
63097;BME280;49185;42.320;23.198;2024-02-15T00:07:38;95247.34;;;2.46;100.00
63097;BME280;49185;42.320;23.198;2024-02-15T00:10:04;95242.28;;;2.45;100.00
63097;BME280;49185;42.320;23.198;2024-02-15T00:12:30;95241.06;;;2.47;100.00
63097;BME280;49185;42.320;23.198;2024-02-15T00:14:56;95243.06;;;2.45;100.00
63097;BME280;49185;42.320;23.198;2024-02-15T00:17:21;95245.25;;;2.42;100.00
63097;BME280;49185;42.320;23.198;2024-02-15T00:19:47;95241.78;;;2.56;100.00
63097;BME280;49185;42.320;23.198;2024-02-15T00:22:12;95243.66;;;2.62;100.00
63097;BME280;49185;42.320;23.198;2024-02-15T00:24:38;95245.03;;;2.58;100.00
63097;BME280;49185;42.320;23.198;2024-02-15T00:27:04;95244.41;;;2.56;100.00
63097;BME280;49185;42.320;23.198;2024-02-15T00:29:30;95242.59;;;2.57;100.00
63097;BME280;49185;42.320;23.198;2024-02-15T00:31:55;95238.78;;;2.59;100.00
63097;BME280;49185;42.320;23.198;2024-02-15T00:34:21;95237.13;;;2.58;100.00
63097;BME280;49185;42.320;23.198;2024-02-15T00:36:47;95240.16;;;2.55;100.00
63097;BME280;49185;42.320;23.198;2024-02-15T00:39:12;95241.97;;;2.55;100.00
63097;BME280;49185;42.320;23.198;2024-02-15T00:41:38;95242.97;;;2.54;100.00
63097;BME280;49185;42.320;23.198;2024-02-15T00:44:04;95242.59;;;2.57;100.00
63097;BME280;49185;42.320;23.198;2024-02-15T00:46:29;95245.84;;;2.59;100.00
63097;BME280;49185;42.320;23.198;2024-02-15T00:48:55;95247.53;;;2.45;100.00
63097;BME280;49185;42.320;23.198;2024-02-15T00:51:20;95247.16;;;2.33;100.00
63097;BME280;49185;42.320;23.198;2024-02-15T00:53:46;95245.28;;;2.27;100.00
63097;BME280;49185;42.320;23.198;2024-02-15T00:56:12;95239.97;;;2.20;100.00
63097;BME280;49185;42.320;23.198;2024-02-15T00:58:38;95241.78;;;2.20;100.00
63097;BME280;49185;42.320;23.198;2024-02-15T01:01:04;95244.50;;;2.12;100.00
63097;BME280;49185;42.320;23.198;2024-02-15T01:03:29;95245.88;;;2.07;100.00
63097;BME280;49185;42.320;23.198;2024-02-15T01:05:55;95246.75;;;2.15;100.00
63097;BME280;49185;42.320;23.198;2024-02-15T01:08:20;95245.56;;;2.17;100.00
63097;BME280;49185;42.320;23.198;2024-02-15T01:10:46;95249.47;;;2.21;100.00
63097;BME280;49185;42.320;23.198;2024-02-15T01:13:12;95245.66;;;2.24;100.00
63097;BME280;49185;42.320;23.198;2024-02-15T01:15:37;95249.47;;;2.21;100.00
63097;BME280;49185;42.320;23.198;2024-02-15T01:18:03;95236.53;;;2.20;100.00
63097;BME280;49185;42.320;23.198;2024-02-15T01:20:29;95235.25;;;2.16;100.00
63097;BME280;49185;42.320;23.198;2024-02-15T01:22:54;95243.75;;;2.18;100.00
63097;BME280;49185;42.320;23.198;2024-02-15T01:25:20;95241.97;;;2.18;100.00
63097;BME280;49185;42.320;23.198;2024-02-15T01:27:46;95238.78;;;2.08;100.00
63097;BME280;49185;42.320;23.198;2024-02-15T01:30:11;95233.72;;;2.06;100.00
63097;BME280;49185;42.320;23.198;2024-02-15T01:32:37;95231.28;;;2.05;100.00
63097;BME280;49185;42.320;23.198;2024-02-15T01:35:03;95234.94;;;2.04;100.00
63097;BME280;49185;42.320;23.198;2024-02-15T01:37:28;95231.84;;;2.00;100.00
63097;BME280;49185;42.320;23.198;2024-02-15T01:39:54;95240.31;;;2.32;100.00
63097;BME280;49185;42.320;23.198;2024-02-15T01:42:20;95239.59;;;2.23;100.00
63097;BME280;49185;42.320;23.198;2024-02-15T01:44:45;95243.75;;;2.33;100.00
63097;BME280;49185;42.320;23.198;2024-02-15T01:47:11;95240.69;;;2.14;100.00
63097;BME280;49185;42.320;23.198;2024-02-15T01:49:36;95242.84;;;2.11;100.00
63097;BME280;49185;42.320;23.198;2024-02-15T01:52:04;95243.75;;;2.18;100.00
63097;BME280;49185;42.320;23.198;2024-02-15T01:54:32;95242.84;;;2.11;100.00
63097;BME280;49185;42.320;23.198;2024-02-15T01:56:57;95247.59;;;2.00;100.00
63097;BME280;49185;42.320;23.198;2024-02-15T01:59:23;95242.59;;;1.90;100.00
63097;BME280;49185;42.320;23.198;2024-02-15T02:01:50;95244.59;;;1.88;100.00
63097;BME280;49185;42.320;23.198;2024-02-15T02:04:16;95250.03;;;1.87;100.00
63097;BME280;49185;42.320;23.198;2024-02-15T02:06:41;95241.88;;;1.82;100.00
63097;BME280;49185;42.320;23.198;2024-02-15T02:09:13;95250.22;;;2.00;100.00
63097;BME280;49185;42.320;23.198;2024-02-15T02:11:39;95247.38;;;2.02;100.00
63097;BME280;49185;42.320;23.198;2024-02-15T02:14:04;95246.94;;;1.98;100.00
63097;BME280;49185;42.320;23.198;2024-02-15T02:16:31;95246.13;;;1.98;100.00
63097;BME280;49185;42.320;23.198;2024-02-15T02:18:58;95243.97;;;2.01;100.00
63097;BME280;49185;42.320;23.198;2024-02-15T02:21:25;95251.91;;;2.08;100.00
63097;BME280;49185;42.320;23.198;2024-02-15T02:23:58;95254.09;;;2.04;100.00
63097;BME280;49185;42.320;23.198;2024-02-15T02:26:24;95261.16;;;2.04;100.00
63097;BME280;49185;42.320;23.198;2024-02-15T02:28:51;95267.59;;;1.86;100.00
63097;BME280;49185;42.320;23.198;2024-02-15T02:31:16;95266.97;;;1.84;100.00
63097;BME280;49185;42.320;23.198;2024-02-15T02:33:50;95265.41;;;1.90;100.00
63097;BME280;49185;42.320;23.198;2024-02-15T02:36:16;95267.47;;;1.95;100.00
63097;BME280;49185;42.320;23.198;2024-02-15T02:38:42;95277.44;;;1.84;100.00
63097;BME280;49185;42.320;23.198;2024-02-15T02:41:07;95271.53;;;1.82;100.00
63097;BME280;49185;42.320;23.198;2024-02-15T02:43:33;95271.94;;;1.79;100.00
63097;BME280;49185;42.320;23.198;2024-02-15T02:45:58;95274.09;;;1.76;100.00
63097;BME280;49185;42.320;23.198;2024-02-15T02:48:24;95275.56;;;1.93;100.00
63097;BME280;49185;42.320;23.198;2024-02-15T02:50:49;95271.81;;;1.87;100.00
63097;BME280;49185;42.320;23.198;2024-02-15T02:53:15;95273.63;;;2.02;100.00
63097;BME280;49185;42.320;23.198;2024-02-15T02:55:41;95266.69;;;1.94;100.00
63097;BME280;49185;42.320;23.198;2024-02-15T02:58:07;95262.22;;;1.95;100.00
63097;BME280;49185;42.320;23.198;2024-02-15T03:00:32;95263.16;;;1.87;100.00
63097;BME280;49185;42.320;23.198;2024-02-15T03:02:58;95263.16;;;1.87;100.00
63097;BME280;49185;42.320;23.198;2024-02-15T03:05:24;95266.50;;;1.81;100.00
63097;BME280;49185;42.320;23.198;2024-02-15T03:07:49;95269.72;;;1.68;100.00
63097;BME280;49185;42.320;23.198;2024-02-15T03:10:15;95265.84;;;1.64;100.00
63097;BME280;49185;42.320;23.198;2024-02-15T03:12:41;95268.41;;;1.72;100.00
63097;BME280;49185;42.320;23.198;2024-02-15T03:15:07;95269.84;;;1.75;100.00
63097;BME280;49185;42.320;23.198;2024-02-15T03:17:32;95273.72;;;1.64;100.00
63097;BME280;49185;42.320;23.198;2024-02-15T03:19:58;95270.75;;;1.67;100.00
63097;BME280;49185;42.320;23.198;2024-02-15T03:22:24;95269.22;;;1.73;100.00
63097;BME280;49185;42.320;23.198;2024-02-15T03:24:49;95275.91;;;1.90;100.00
63097;BME280;49185;42.320;23.198;2024-02-15T03:27:15;95278.25;;;1.85;100.00
63097;BME280;49185;42.320;23.198;2024-02-15T03:29:40;95278.44;;;1.83;100.00
63097;BME280;49185;42.320;23.198;2024-02-15T03:32:06;95276.44;;;1.85;100.00
63097;BME280;49185;42.320;23.198;2024-02-15T03:34:31;95276.16;;;1.80;100.00
63097;BME280;49185;42.320;23.198;2024-02-15T03:36:57;95270.84;;;1.74;100.00
63097;BME280;49185;42.320;23.198;2024-02-15T03:39:24;95271.72;;;1.66;100.00
63097;BME280;49185;42.320;23.198;2024-02-15T03:41:49;95272.53;;;1.66;100.00
63097;BME280;49185;42.320;23.198;2024-02-15T03:44:15;95263.06;;;1.65;100.00
63097;BME280;49185;42.320;23.198;2024-02-15T03:46:40;95266.84;;;1.63;100.00
63097;BME280;49185;42.320;23.198;2024-02-15T03:49:06;95258.88;;;1.56;100.00
63097;BME280;49185;42.320;23.198;2024-02-15T03:51:31;95261.69;;;1.55;100.00
63097;BME280;49185;42.320;23.198;2024-02-15T03:53:56;95264.13;;;1.56;100.00
63097;BME280;49185;42.320;23.198;2024-02-15T03:56:22;95265.91;;;1.56;100.00
63097;BME280;49185;42.320;23.198;2024-02-15T03:58:47;95263.28;;;1.56;100.00
63097;BME280;49185;42.320;23.198;2024-02-15T04:01:13;95265.28;;;1.54;100.00
63097;BME280;49185;42.320;23.198;2024-02-15T04:03:38;95262.38;;;1.48;100.00
63097;BME280;49185;42.320;23.198;2024-02-15T04:06:03;95269.00;;;1.44;100.00
63097;BME280;49185;42.320;23.198;2024-02-15T04:08:29;95269.34;;;1.41;100.00
63097;BME280;49185;42.320;23.198;2024-02-15T04:10:54;95261.19;;;1.36;100.00
63097;BME280;49185;42.320;23.198;2024-02-15T04:13:19;95271.03;;;1.34;100.00
63097;BME280;49185;42.320;23.198;2024-02-15T04:15:45;95269.78;;;1.45;100.00
63097;BME280;49185;42.320;23.198;2024-02-15T04:18:10;95272.25;;;1.46;100.00
63097;BME280;49185;42.320;23.198;2024-02-15T04:20:36;95282.56;;;1.48;100.00
63097;BME280;49185;42.320;23.198;2024-02-15T04:23:01;95269.28;;;1.49;100.00
63097;BME280;49185;42.320;23.198;2024-02-15T04:25:27;95280.75;;;1.48;100.00
63097;BME280;49185;42.320;23.198;2024-02-15T04:27:52;95273.16;;;1.54;100.00
63097;BME280;49185;42.320;23.198;2024-02-15T04:30:17;95270.06;;;1.50;100.00
63097;BME280;49185;42.320;23.198;2024-02-15T04:32:43;95281.84;;;1.54;100.00
63097;BME280;49185;42.320;23.198;2024-02-15T04:35:08;95281.66;;;1.56;100.00
63097;BME280;49185;42.320;23.198;2024-02-15T04:37:33;95279.66;;;1.43;100.00
63097;BME280;49185;42.320;23.198;2024-02-15T04:39:59;95284.09;;;1.42;100.00
63097;BME280;49185;42.320;23.198;2024-02-15T04:42:25;95286.53;;;1.44;100.00
63097;BME280;49185;42.320;23.198;2024-02-15T04:44:51;95287.13;;;1.31;100.00
63097;BME280;49185;42.320;23.198;2024-02-15T04:47:16;95281.41;;;1.27;100.00
63097;BME280;49185;42.320;23.198;2024-02-15T04:49:42;95288.28;;;1.28;100.00
63097;BME280;49185;42.320;23.198;2024-02-15T04:52:07;95294.34;;;1.29;100.00
63097;BME280;49185;42.320;23.198;2024-02-15T04:54:33;95293.88;;;1.25;100.00
63097;BME280;49185;42.320;23.198;2024-02-15T04:56:59;95296.78;;;1.30;100.00
63097;BME280;49185;42.320;23.198;2024-02-15T04:59:24;95302.84;;;1.31;100.00
63097;BME280;49185;42.320;23.198;2024-02-15T05:01:50;95308.09;;;1.31;100.00
63097;BME280;49185;42.320;23.198;2024-02-15T05:04:15;95309.72;;;1.32;100.00
63097;BME280;49185;42.320;23.198;2024-02-15T05:06:41;95308.47;;;1.28;100.00
63097;BME280;49185;42.320;23.198;2024-02-15T05:09:06;95308.63;;;1.26;100.00
63097;BME280;49185;42.320;23.198;2024-02-15T05:11:31;95312.34;;;1.32;100.00
63097;BME280;49185;42.320;23.198;2024-02-15T05:13:57;95312.34;;;1.32;100.00
63097;BME280;49185;42.320;23.198;2024-02-15T05:16:22;95312.97;;;1.34;100.00
63097;BME280;49185;42.320;23.198;2024-02-15T05:18:47;95314.97;;;1.32;100.00
63097;BME280;49185;42.320;23.198;2024-02-15T05:21:13;95316.94;;;1.30;100.00
63097;BME280;49185;42.320;23.198;2024-02-15T05:23:38;95329.25;;;1.29;100.00
63097;BME280;49185;42.320;23.198;2024-02-15T05:26:04;95328.25;;;1.30;100.00
63097;BME280;49185;42.320;23.198;2024-02-15T05:28:30;95329.06;;;1.31;100.00
63097;BME280;49185;42.320;23.198;2024-02-15T05:33:34;95330.69;;;1.32;100.00
63097;BME280;49185;42.320;23.198;2024-02-15T05:36:00;95339.19;;;1.34;100.00
63097;BME280;49185;42.320;23.198;2024-02-15T05:38:25;95338.69;;;1.39;100.00
63097;BME280;49185;42.320;23.198;2024-02-15T05:40:51;95340.56;;;1.45;100.00
63097;BME280;49185;42.320;23.198;2024-02-15T05:43:17;95338.69;;;1.39;100.00
63097;BME280;49185;42.320;23.198;2024-02-15T05:45:42;95342.63;;;1.35;100.00
63097;BME280;49185;42.320;23.198;2024-02-15T05:48:08;95340.28;;;1.40;100.00
63097;BME280;49185;42.320;23.198;2024-02-15T05:50:34;95343.19;;;1.45;100.00
63097;BME280;49185;42.320;23.198;2024-02-15T05:52:59;95343.28;;;1.37;100.00
63097;BME280;49185;42.320;23.198;2024-02-15T05:55:25;95349.28;;;1.45;100.00
63097;BME280;49185;42.320;23.198;2024-02-15T05:57:50;95361.09;;;1.41;100.00
63097;BME280;49185;42.320;23.198;2024-02-15T06:00:16;95356.31;;;1.45;100.00
63097;BME280;49185;42.320;23.198;2024-02-15T06:02:42;95361.38;;;1.46;100.00
63097;BME280;49185;42.320;23.198;2024-02-15T06:05:07;95364.06;;;1.61;100.00
63097;BME280;49185;42.320;23.198;2024-02-15T06:07:32;95367.69;;;1.75;100.00
63097;BME280;49185;42.320;23.198;2024-02-15T06:09:58;95371.50;;;1.73;100.00
63097;BME280;49185;42.320;23.198;2024-02-15T06:12:24;95378.72;;;1.70;100.00
63097;BME280;49185;42.320;23.198;2024-02-15T06:14:50;95374.63;;;1.68;100.00
63097;BME280;49185;42.320;23.198;2024-02-15T06:17:15;95372.47;;;1.71;100.00
63097;BME280;49185;42.320;23.198;2024-02-15T06:19:41;95382.44;;;1.76;100.00
63097;BME280;49185;42.320;23.198;2024-02-15T06:22:06;95385.03;;;1.99;100.00
63097;BME280;49185;42.320;23.198;2024-02-15T06:24:32;95395.41;;;1.93;100.00
63097;BME280;49185;42.320;23.198;2024-02-15T06:26:57;95387.53;;;1.93;100.00
63097;BME280;49185;42.320;23.198;2024-02-15T06:29:23;95390.28;;;1.99;100.00
63097;BME280;49185;42.320;23.198;2024-02-15T06:31:48;95391.91;;;2.00;100.00
63097;BME280;49185;42.320;23.198;2024-02-15T06:34:13;95399.91;;;2.22;100.00
63097;BME280;49185;42.320;23.198;2024-02-15T06:36:49;95398.91;;;2.23;100.00
63097;BME280;49185;42.320;23.198;2024-02-15T06:39:15;95402.34;;;2.23;100.00
63097;BME280;49185;42.320;23.198;2024-02-15T06:41:40;95388.22;;;2.24;100.00
63097;BME280;49185;42.320;23.198;2024-02-15T06:44:06;95397.63;;;2.34;100.00
63097;BME280;49185;42.320;23.198;2024-02-15T06:46:31;95404.19;;;2.38;100.00
63097;BME280;49185;42.320;23.198;2024-02-15T06:48:56;95402.28;;;2.46;100.00
63097;BME280;49185;42.320;23.198;2024-02-15T06:51:22;95391.78;;;2.46;100.00
63097;BME280;49185;42.320;23.198;2024-02-15T06:53:47;95404.78;;;2.55;100.00
63097;BME280;49185;42.320;23.198;2024-02-15T06:56:13;95402.88;;;2.63;100.00
63097;BME280;49185;42.320;23.198;2024-02-15T06:58:38;95402.31;;;2.83;100.00
63097;BME280;49185;42.320;23.198;2024-02-15T07:01:03;95402.41;;;2.90;100.00
63097;BME280;49185;42.320;23.198;2024-02-15T07:03:29;95396.88;;;2.99;100.00
63097;BME280;49185;42.320;23.198;2024-02-15T07:05:54;95401.25;;;2.92;100.00
63097;BME280;49185;42.320;23.198;2024-02-15T07:08:19;95397.66;;;3.15;100.00
63097;BME280;49185;42.320;23.198;2024-02-15T07:10:45;95399.53;;;3.21;100.00
63097;BME280;49185;42.320;23.198;2024-02-15T07:13:10;95400.72;;;3.18;100.00
63097;BME280;49185;42.320;23.198;2024-02-15T07:15:35;95405.69;;;3.50;100.00
63097;BME280;49185;42.320;23.198;2024-02-15T07:18:01;95406.84;;;3.40;100.00
63097;BME280;49185;42.320;23.198;2024-02-15T07:20:26;95407.38;;;3.57;100.00
63097;BME280;49185;42.320;23.198;2024-02-15T07:22:52;95408.13;;;3.73;100.00
63097;BME280;49185;42.320;23.198;2024-02-15T07:25:17;95400.19;;;3.66;100.00
63097;BME280;49185;42.320;23.198;2024-02-15T07:27:42;95403.88;;;3.93;100.00
63097;BME280;49185;42.320;23.198;2024-02-15T07:30:08;95405.56;;;3.79;100.00
63097;BME280;49185;42.320;23.198;2024-02-15T07:32:33;95413.84;;;3.76;100.00
63097;BME280;49185;42.320;23.198;2024-02-15T07:34:59;95403.47;;;3.96;100.00
63097;BME280;49185;42.320;23.198;2024-02-15T07:37:24;95396.91;;;3.86;100.00
63097;BME280;49185;42.320;23.198;2024-02-15T07:39:49;95398.19;;;3.90;100.00
63097;BME280;49185;42.320;23.198;2024-02-15T07:42:15;95395.66;;;3.82;100.00
63097;BME280;49185;42.320;23.198;2024-02-15T07:44:40;95396.13;;;3.64;100.00
63097;BME280;49185;42.320;23.198;2024-02-15T07:47:06;95386.38;;;3.86;100.00
63097;BME280;49185;42.320;23.198;2024-02-15T07:49:31;95395.72;;;3.88;100.00
63097;BME280;49185;42.320;23.198;2024-02-15T07:51:56;95405.06;;;4.82;100.00
63097;BME280;49185;42.320;23.198;2024-02-15T07:54:22;95388.66;;;4.93;100.00
63097;BME280;49185;42.320;23.198;2024-02-15T07:56:48;95382.31;;;5.29;100.00
63097;BME280;49185;42.320;23.198;2024-02-15T07:59:14;95377.72;;;6.45;96.83
63097;BME280;49185;42.320;23.198;2024-02-15T08:01:43;95378.69;;;7.16;93.61
63097;BME280;49185;42.320;23.198;2024-02-15T08:04:08;95383.22;;;7.02;93.43
63097;BME280;49185;42.320;23.198;2024-02-15T08:06:34;95377.91;;;6.50;90.83
63097;BME280;49185;42.320;23.198;2024-02-15T08:08:59;95377.13;;;6.23;95.23
63097;BME280;49185;42.320;23.198;2024-02-15T08:11:25;95371.00;;;5.82;93.27
63097;BME280;49185;42.320;23.198;2024-02-15T08:13:51;95376.47;;;6.54;92.64
63097;BME280;49185;42.320;23.198;2024-02-15T08:16:19;95371.84;;;7.40;87.61
63097;BME280;49185;42.320;23.198;2024-02-15T08:18:45;95372.31;;;7.94;80.99
63097;BME280;49185;42.320;23.198;2024-02-15T08:21:10;95368.00;;;8.68;78.65
63097;BME280;49185;42.320;23.198;2024-02-15T08:23:36;95365.72;;;8.72;76.09
63097;BME280;49185;42.320;23.198;2024-02-15T08:26:01;95367.09;;;9.11;74.36
63097;BME280;49185;42.320;23.198;2024-02-15T08:28:27;95369.75;;;8.93;73.23
63097;BME280;49185;42.320;23.198;2024-02-15T08:30:54;95370.66;;;8.68;75.70
63097;BME280;49185;42.320;23.198;2024-02-15T08:33:20;95367.28;;;9.28;75.38
63097;BME280;49185;42.320;23.198;2024-02-15T08:35:45;95357.81;;;9.21;74.06
63097;BME280;49185;42.320;23.198;2024-02-15T08:38:10;95359.69;;;9.32;73.20
63097;BME280;49185;42.320;23.198;2024-02-15T08:40:36;95351.84;;;9.37;70.80
63097;BME280;49185;42.320;23.198;2024-02-15T08:43:01;95356.53;;;9.23;71.38
63097;BME280;49185;42.320;23.198;2024-02-15T08:45:27;95356.38;;;9.48;73.04
63097;BME280;49185;42.320;23.198;2024-02-15T08:47:52;95353.25;;;9.40;68.95
63097;BME280;49185;42.320;23.198;2024-02-15T08:50:18;95365.28;;;9.54;67.66
63097;BME280;49185;42.320;23.198;2024-02-15T08:52:44;95347.81;;;9.77;68.82
63097;BME280;49185;42.320;23.198;2024-02-15T08:55:11;95348.72;;;9.10;72.07
63097;BME280;49185;42.320;23.198;2024-02-15T08:57:37;95342.34;;;9.29;71.78
63097;BME280;49185;42.320;23.198;2024-02-15T09:00:05;95353.63;;;8.95;74.83
63097;BME280;49185;42.320;23.198;2024-02-15T09:02:31;95345.25;;;9.28;75.49
63097;BME280;49185;42.320;23.198;2024-02-15T09:04:57;95339.84;;;8.86;74.13
63097;BME280;49185;42.320;23.198;2024-02-15T09:07:22;95340.66;;;8.86;76.70
63097;BME280;49185;42.320;23.198;2024-02-15T09:09:48;95333.69;;;9.04;76.68
63097;BME280;49185;42.320;23.198;2024-02-15T09:12:13;95321.06;;;9.18;71.45
63097;BME280;49185;42.320;23.198;2024-02-15T09:14:39;95319.28;;;9.00;74.85
63097;BME280;49185;42.320;23.198;2024-02-15T09:17:05;95325.16;;;8.46;78.23
63097;BME280;49185;42.320;23.198;2024-02-15T09:19:31;95323.28;;;8.28;83.07
63097;BME280;49185;42.320;23.198;2024-02-15T09:21:56;95309.66;;;8.50;76.39
63097;BME280;49185;42.320;23.198;2024-02-15T09:24:22;95317.19;;;8.28;78.35
63097;BME280;49185;42.320;23.198;2024-02-15T09:26:47;95314.59;;;8.21;75.97
63097;BME280;49185;42.320;23.198;2024-02-15T09:29:13;95310.91;;;8.66;75.48
63097;BME280;49185;42.320;23.198;2024-02-15T09:31:39;95310.81;;;9.21;76.62
63097;BME280;49185;42.320;23.198;2024-02-15T09:34:04;95304.63;;;9.39;72.00
63097;BME280;49185;42.320;23.198;2024-02-15T09:36:34;95306.22;;;9.71;72.17
63097;BME280;49185;42.320;23.198;2024-02-15T09:38:59;95302.91;;;9.45;70.51
63097;BME280;49185;42.320;23.198;2024-02-15T09:41:24;95296.84;;;9.68;70.55
63097;BME280;49185;42.320;23.198;2024-02-15T09:43:50;95306.72;;;9.37;70.17
63097;BME280;49185;42.320;23.198;2024-02-15T09:46:15;95296.72;;;9.51;71.58
63097;BME280;49185;42.320;23.198;2024-02-15T09:48:47;95299.41;;;9.21;74.70
63097;BME280;49185;42.320;23.198;2024-02-15T09:51:17;95295.53;;;9.47;74.68
63097;BME280;49185;42.320;23.198;2024-02-15T09:53:44;95295.50;;;10.01;68.11
63097;BME280;49185;42.320;23.198;2024-02-15T09:56:10;95285.69;;;10.01;66.86
63097;BME280;49185;42.320;23.198;2024-02-15T09:58:38;95283.94;;;10.31;71.88
63097;BME280;49185;42.320;23.198;2024-02-15T10:01:04;95280.47;;;10.06;70.13
63097;BME280;49185;42.320;23.198;2024-02-15T10:03:30;95284.19;;;10.29;68.84
63097;BME280;49185;42.320;23.198;2024-02-15T10:05:55;95277.94;;;10.23;68.18
63097;BME280;49185;42.320;23.198;2024-02-15T10:08:20;95268.56;;;9.85;68.65
63097;BME280;49185;42.320;23.198;2024-02-15T10:10:46;95262.56;;;10.25;67.45
63097;BME280;49185;42.320;23.198;2024-02-15T10:13:15;95260.00;;;10.54;67.18
63097;BME280;49185;42.320;23.198;2024-02-15T10:15:40;95258.75;;;9.20;67.31
63097;BME280;49185;42.320;23.198;2024-02-15T10:18:09;95251.50;;;9.27;69.03
63097;BME280;49185;42.320;23.198;2024-02-15T10:20:35;95261.28;;;9.69;69.57
63097;BME280;49185;42.320;23.198;2024-02-15T10:23:13;95242.75;;;9.39;69.08
63097;BME280;49185;42.320;23.198;2024-02-15T10:25:39;95229.09;;;9.23;70.16
63097;BME280;49185;42.320;23.198;2024-02-15T10:28:06;95235.06;;;9.19;71.42
63097;BME280;49185;42.320;23.198;2024-02-15T10:30:33;95237.22;;;9.40;70.48
63097;BME280;49185;42.320;23.198;2024-02-15T10:32:59;95230.47;;;9.14;69.92
63097;BME280;49185;42.320;23.198;2024-02-15T10:35:25;95227.47;;;9.22;70.79
63097;BME280;49185;42.320;23.198;2024-02-15T10:37:51;95225.59;;;9.11;71.61
63097;BME280;49185;42.320;23.198;2024-02-15T10:40:20;95223.59;;;9.48;69.77
63097;BME280;49185;42.320;23.198;2024-02-15T10:42:51;95219.06;;;9.25;69.45
63097;BME280;49185;42.320;23.198;2024-02-15T10:45:17;95218.53;;;9.71;69.03
63097;BME280;49185;42.320;23.198;2024-02-15T10:47:46;95218.31;;;9.60;66.05
63097;BME280;49185;42.320;23.198;2024-02-15T10:50:12;95229.28;;;9.99;69.11
63097;BME280;49185;42.320;23.198;2024-02-15T10:52:47;95209.50;;;9.72;65.04
63097;BME280;49185;42.320;23.198;2024-02-15T10:55:25;95215.03;;;10.05;65.68
63097;BME280;49185;42.320;23.198;2024-02-15T10:57:55;95215.84;;;10.30;68.25
63097;BME280;49185;42.320;23.198;2024-02-15T11:00:24;95211.78;;;10.39;63.08
63097;BME280;49185;42.320;23.198;2024-02-15T11:03:03;95204.72;;;10.44;63.20
63097;BME280;49185;42.320;23.198;2024-02-15T11:05:33;95203.19;;;10.89;62.49
63097;BME280;49185;42.320;23.198;2024-02-15T11:07:58;95195.38;;;10.99;61.55
63097;BME280;49185;42.320;23.198;2024-02-15T11:10:30;95200.84;;;10.64;60.00
63097;BME280;49185;42.320;23.198;2024-02-15T11:12:56;95195.66;;;10.86;61.83
63097;BME280;49185;42.320;23.198;2024-02-15T11:15:50;95189.75;;;11.13;59.71
63097;BME280;49185;42.320;23.198;2024-02-15T11:21:12;95192.81;;;11.21;57.87
63097;BME280;49185;42.320;23.198;2024-02-15T11:23:37;95192.41;;;12.37;58.32
63097;BME280;49185;42.320;23.198;2024-02-15T11:26:04;95193.44;;;12.58;55.57
63097;BME280;49185;42.320;23.198;2024-02-15T11:30:56;95193.19;;;11.42;56.69
63097;BME280;49185;42.320;23.198;2024-02-15T11:33:29;95194.81;;;10.16;58.59
63097;BME280;49185;42.320;23.198;2024-02-15T11:36:11;95196.09;;;10.02;61.51
63097;BME280;49185;42.320;23.198;2024-02-15T11:38:41;95200.63;;;10.01;61.38
63097;BME280;49185;42.320;23.198;2024-02-15T11:41:07;95192.72;;;10.42;60.87
63097;BME280;49185;42.320;23.198;2024-02-15T11:46:08;95195.34;;;11.28;58.09
63097;BME280;49185;42.320;23.198;2024-02-15T11:48:36;95193.25;;;11.30;57.62
63097;BME280;49185;42.320;23.198;2024-02-15T11:51:01;95191.03;;;11.95;56.38
63097;BME280;49185;42.320;23.198;2024-02-15T11:53:27;95188.78;;;11.87;55.34
63097;BME280;49185;42.320;23.198;2024-02-15T11:55:59;95190.09;;;11.67;56.39
63097;BME280;49185;42.320;23.198;2024-02-15T11:58:25;95191.78;;;11.23;54.70
63097;BME280;49185;42.320;23.198;2024-02-15T12:00:50;95183.88;;;11.62;58.00
63097;BME280;49185;42.320;23.198;2024-02-15T12:03:17;95188.94;;;10.67;58.74
63097;BME280;49185;42.320;23.198;2024-02-15T12:05:42;95184.03;;;10.47;60.15
63097;BME280;49185;42.320;23.198;2024-02-15T12:08:10;95176.66;;;10.94;57.31
63097;BME280;49185;42.320;23.198;2024-02-15T12:10:35;95184.75;;;10.71;58.36
63097;BME280;49185;42.320;23.198;2024-02-15T12:13:01;95179.47;;;11.05;56.90
63097;BME280;49185;42.320;23.198;2024-02-15T12:15:26;95168.63;;;11.23;57.66
63097;BME280;49185;42.320;23.198;2024-02-15T12:17:52;95170.88;;;11.14;58.76
63097;BME280;49185;42.320;23.198;2024-02-15T12:20:17;95160.69;;;10.94;58.56
63097;BME280;49185;42.320;23.198;2024-02-15T12:22:45;95178.63;;;10.18;61.35
63097;BME280;49185;42.320;23.198;2024-02-15T12:25:16;95177.59;;;10.07;62.18
63097;BME280;49185;42.320;23.198;2024-02-15T12:27:45;95181.47;;;9.64;58.17
63097;BME280;49185;42.320;23.198;2024-02-15T12:30:15;95176.28;;;10.21;58.39
63097;BME280;49185;42.320;23.198;2024-02-15T12:32:41;95187.19;;;10.08;58.26
63097;BME280;49185;42.320;23.198;2024-02-15T12:35:11;95176.06;;;10.23;57.98
63097;BME280;49185;42.320;23.198;2024-02-15T12:37:37;95169.03;;;10.17;57.96
63097;BME280;49185;42.320;23.198;2024-02-15T12:40:19;95175.91;;;9.89;58.52
63097;BME280;49185;42.320;23.198;2024-02-15T12:42:45;95170.69;;;9.94;58.57
63097;BME280;49185;42.320;23.198;2024-02-15T12:45:16;95171.03;;;10.10;62.60
63097;BME280;49185;42.320;23.198;2024-02-15T12:47:41;95176.47;;;9.32;64.14
63097;BME280;49185;42.320;23.198;2024-02-15T12:50:14;95178.50;;;9.06;63.65
63097;BME280;49185;42.320;23.198;2024-02-15T12:52:41;95173.44;;;9.17;62.83
63097;BME280;49185;42.320;23.198;2024-02-15T12:55:14;95168.53;;;9.44;61.93
63097;BME280;49185;42.320;23.198;2024-02-15T12:57:41;95176.00;;;9.23;60.42